sensor_id;sensor_type;location;lat;lon;timestamp;pressure;altitude;pressure_sealevel;temperature;humidity
79123;BME280;68526;44.600;26.032;2023-04-02T00:00:14;99037.22;;;10.88;84.05
79123;BME280;68526;44.600;26.032;2023-04-02T00:00:30;99034.03;;;10.86;84.21
79123;BME280;68526;44.600;26.032;2023-04-02T00:01:16;99034.84;;;10.86;84.32
79123;BME280;68526;44.600;26.032;2023-04-02T00:01:35;99032.09;;;10.86;83.83
79123;BME280;68526;44.600;26.032;2023-04-02T00:01:51;99032.44;;;10.85;84.28
79123;BME280;68526;44.600;26.032;2023-04-02T00:02:29;99028.09;;;10.84;84.35
79123;BME280;68526;44.600;26.032;2023-04-02T00:02:55;99034.38;;;10.84;84.01
79123;BME280;68526;44.600;26.032;2023-04-02T00:03:13;99031.31;;;10.86;84.18
79123;BME280;68526;44.600;26.032;2023-04-02T00:04:07;99033.94;;;10.82;83.91
79123;BME280;68526;44.600;26.032;2023-04-02T00:04:28;99030.84;;;10.84;83.96
79123;BME280;68526;44.600;26.032;2023-04-02T00:04:44;99026.50;;;10.83;83.71
79123;BME280;68526;44.600;26.032;2023-04-02T00:05:43;99032.44;;;10.85;83.86
79123;BME280;68526;44.600;26.032;2023-04-02T00:06:32;99023.41;;;10.84;83.66
79123;BME280;68526;44.600;26.032;2023-04-02T00:06:51;99036.00;;;10.85;84.22
79123;BME280;68526;44.600;26.032;2023-04-02T00:07:23;99037.13;;;10.84;83.74
79123;BME280;68526;44.600;26.032;2023-04-02T00:07:46;99030.03;;;10.83;83.91
79123;BME280;68526;44.600;26.032;2023-04-02T00:08:04;99030.84;;;10.84;84.23
79123;BME280;68526;44.600;26.032;2023-04-02T00:08:27;99036.78;;;10.86;83.92
79123;BME280;68526;44.600;26.032;2023-04-02T00:08:44;99034.03;;;10.86;84.04
79123;BME280;68526;44.600;26.032;2023-04-02T00:09:01;99034.03;;;10.86;83.90
79123;BME280;68526;44.600;26.032;2023-04-02T00:09:23;99033.94;;;10.82;83.75
79123;BME280;68526;44.600;26.032;2023-04-02T00:09:40;99034.38;;;10.84;83.79
79123;BME280;68526;44.600;26.032;2023-04-02T00:09:56;99031.91;;;10.79;84.05
79123;BME280;68526;44.600;26.032;2023-04-02T00:10:25;99034.31;;;10.81;84.08
79123;BME280;68526;44.600;26.032;2023-04-02T00:10:47;99032.78;;;10.83;84.15
79123;BME280;68526;44.600;26.032;2023-04-02T00:11:03;99029.63;;;10.81;84.08
79123;BME280;68526;44.600;26.032;2023-04-02T00:11:26;99031.56;;;10.81;83.97
79123;BME280;68526;44.600;26.032;2023-04-02T00:11:46;99025.00;;;10.69;83.89
79123;BME280;68526;44.600;26.032;2023-04-02T00:12:14;99026.09;;;10.81;83.86
79123;BME280;68526;44.600;26.032;2023-04-02T00:12:32;99029.25;;;10.83;84.22
79123;BME280;68526;44.600;26.032;2023-04-02T00:12:59;99032.34;;;10.81;84.25
79123;BME280;68526;44.600;26.032;2023-04-02T00:13:22;99031.09;;;10.79;83.77
79123;BME280;68526;44.600;26.032;2023-04-02T00:13:40;99032.63;;;10.76;83.83
79123;BME280;68526;44.600;26.032;2023-04-02T00:13:59;99026.34;;;10.76;84.10
79123;BME280;68526;44.600;26.032;2023-04-02T00:14:22;99029.88;;;10.76;84.12
79123;BME280;68526;44.600;26.032;2023-04-02T00:14:38;99028.81;;;10.81;83.65
79123;BME280;68526;44.600;26.032;2023-04-02T00:14:54;99028.81;;;10.81;83.79
79123;BME280;68526;44.600;26.032;2023-04-02T00:15:12;99031.91;;;10.79;83.77
79123;BME280;68526;44.600;26.032;2023-04-02T00:15:28;99030.31;;;10.78;83.99
79123;BME280;68526;44.600;26.032;2023-04-02T00:15:46;99036.56;;;10.79;84.10
79123;BME280;68526;44.600;26.032;2023-04-02T00:16:06;99036.16;;;10.77;83.77
79123;BME280;68526;44.600;26.032;2023-04-02T00:16:23;99032.97;;;10.75;84.28
79123;BME280;68526;44.600;26.032;2023-04-02T00:16:39;99033.41;;;10.77;83.80
79123;BME280;68526;44.600;26.032;2023-04-02T00:16:57;99033.41;;;10.77;83.89
79123;BME280;68526;44.600;26.032;2023-04-02T00:17:15;99035.00;;;10.78;83.65
79123;BME280;68526;44.600;26.032;2023-04-02T00:17:31;99039.00;;;10.80;83.60
79123;BME280;68526;44.600;26.032;2023-04-02T00:17:47;99035.44;;;10.80;83.52
79123;BME280;68526;44.600;26.032;2023-04-02T00:18:04;99032.72;;;10.80;83.97
79123;BME280;68526;44.600;26.032;2023-04-02T00:18:21;99039.78;;;10.81;83.81
79123;BME280;68526;44.600;26.032;2023-04-02T00:18:41;99031.91;;;10.79;83.75
79123;BME280;68526;44.600;26.032;2023-04-02T00:19:03;99037.41;;;10.79;84.05
79123;BME280;68526;44.600;26.032;2023-04-02T00:19:28;99036.56;;;10.79;83.81
79123;BME280;68526;44.600;26.032;2023-04-02T00:19:48;99032.25;;;10.78;83.80
79123;BME280;68526;44.600;26.032;2023-04-02T00:20:07;99034.66;;;10.79;83.39
79123;BME280;68526;44.600;26.032;2023-04-02T00:20:26;99035.72;;;10.75;83.71
79123;BME280;68526;44.600;26.032;2023-04-02T00:20:45;99036.16;;;10.77;83.62
79123;BME280;68526;44.600;26.032;2023-04-02T00:21:09;99048.63;;;10.74;83.76
79123;BME280;68526;44.600;26.032;2023-04-02T00:21:28;99031.81;;;10.76;83.50
79123;BME280;68526;44.600;26.032;2023-04-02T00:21:46;99046.31;;;10.76;83.53
79123;BME280;68526;44.600;26.032;2023-04-02T00:22:05;99041.63;;;10.77;83.48
79123;BME280;68526;44.600;26.032;2023-04-02T00:22:25;99039.69;;;10.77;83.73
79123;BME280;68526;44.600;26.032;2023-04-02T00:22:43;99040.84;;;10.76;83.54
79123;BME280;68526;44.600;26.032;2023-04-02T00:23:01;99043.94;;;10.75;83.23
79123;BME280;68526;44.600;26.032;2023-04-02T00:23:17;99030.56;;;10.73;83.40
79123;BME280;68526;44.600;26.032;2023-04-02T00:23:35;99037.19;;;10.72;83.35
79123;BME280;68526;44.600;26.032;2023-04-02T00:23:52;99034.72;;;10.67;83.65
79123;BME280;68526;44.600;26.032;2023-04-02T00:24:13;99041.09;;;10.71;83.59
79123;BME280;68526;44.600;26.032;2023-04-02T00:24:32;99033.91;;;10.66;83.36
79123;BME280;68526;44.600;26.032;2023-04-02T00:24:51;99037.44;;;10.67;83.34
79123;BME280;68526;44.600;26.032;2023-04-02T00:25:12;99032.78;;;10.67;83.69
79123;BME280;68526;44.600;26.032;2023-04-02T00:25:35;99043.41;;;10.69;83.41
79123;BME280;68526;44.600;26.032;2023-04-02T00:25:51;99036.66;;;10.66;83.76
79123;BME280;68526;44.600;26.032;2023-04-02T00:26:20;99038.59;;;10.66;83.57
79123;BME280;68526;44.600;26.032;2023-04-02T00:26:40;99041.81;;;10.68;83.37
79123;BME280;68526;44.600;26.032;2023-04-02T00:26:58;99037.91;;;10.69;83.93
79123;BME280;68526;44.600;26.032;2023-04-02T00:27:14;99033.13;;;10.66;83.27
79123;BME280;68526;44.600;26.032;2023-04-02T00:27:30;99031.97;;;10.67;83.38
79123;BME280;68526;44.600;26.032;2023-04-02T00:27:47;99040.56;;;10.65;83.31
79123;BME280;68526;44.600;26.032;2023-04-02T00:28:03;99038.28;;;10.67;83.23
79123;BME280;68526;44.600;26.032;2023-04-02T00:28:21;99035.53;;;10.67;83.12
79123;BME280;68526;44.600;26.032;2023-04-02T00:28:37;99038.34;;;10.71;83.52
79123;BME280;68526;44.600;26.032;2023-04-02T00:28:54;99034.28;;;10.65;83.46
79123;BME280;68526;44.600;26.032;2023-04-02T00:29:12;99033.13;;;10.66;83.68
79123;BME280;68526;44.600;26.032;2023-04-02T00:29:29;99038.59;;;10.66;82.93
79123;BME280;68526;44.600;26.032;2023-04-02T00:29:49;99039.75;;;10.65;83.24
79123;BME280;68526;44.600;26.032;2023-04-02T00:30:06;99037.44;;;10.67;83.10
79123;BME280;68526;44.600;26.032;2023-04-02T00:30:23;99044.09;;;10.66;83.32
79123;BME280;68526;44.600;26.032;2023-04-02T00:30:46;99041.69;;;10.64;83.21
79123;BME280;68526;44.600;26.032;2023-04-02T00:31:03;99042.84;;;10.63;83.48
79123;BME280;68526;44.600;26.032;2023-04-02T00:31:20;99036.94;;;10.61;83.38
79123;BME280;68526;44.600;26.032;2023-04-02T00:31:38;99035.78;;;10.62;83.18
79123;BME280;68526;44.600;26.032;2023-04-02T00:31:57;99035.31;;;10.60;83.40
79123;BME280;68526;44.600;26.032;2023-04-02T00:32:24;99031.00;;;10.59;83.44
79123;BME280;68526;44.600;26.032;2023-04-02T00:32:42;99038.88;;;10.61;83.74
79123;BME280;68526;44.600;26.032;2023-04-02T00:32:58;99033.75;;;10.59;83.55
79123;BME280;68526;44.600;26.032;2023-04-02T00:33:16;99036.94;;;10.61;83.49
79123;BME280;68526;44.600;26.032;2023-04-02T00:33:33;99042.31;;;10.58;83.24
79123;BME280;68526;44.600;26.032;2023-04-02T00:33:50;99032.94;;;10.59;83.46
79123;BME280;68526;44.600;26.032;2023-04-02T00:34:08;99039.94;;;10.56;83.81
79123;BME280;68526;44.600;26.032;2023-04-02T00:34:32;99037.28;;;10.60;83.53
79123;BME280;68526;44.600;26.032;2023-04-02T00:34:51;99032.59;;;10.60;83.32
79123;BME280;68526;44.600;26.032;2023-04-02T00:35:11;99038.00;;;10.57;83.33
79123;BME280;68526;44.600;26.032;2023-04-02T00:35:28;99041.53;;;10.57;83.32
79123;BME280;68526;44.600;26.032;2023-04-02T00:35:45;99041.06;;;10.55;83.33
79123;BME280;68526;44.600;26.032;2023-04-02T00:36:05;99039.16;;;10.56;83.48
79123;BME280;68526;44.600;26.032;2023-04-02T00:36:24;99036.75;;;10.54;83.09
79123;BME280;68526;44.600;26.032;2023-04-02T00:36:42;99043.00;;;10.55;83.30
79123;BME280;68526;44.600;26.032;2023-04-02T00:36:58;99044.94;;;10.54;83.24
79123;BME280;68526;44.600;26.032;2023-04-02T00:37:18;99041.41;;;10.54;83.67
79123;BME280;68526;44.600;26.032;2023-04-02T00:37:38;99048.47;;;10.55;83.11
79123;BME280;68526;44.600;26.032;2023-04-02T00:37:56;99043.38;;;10.53;83.33
79123;BME280;68526;44.600;26.032;2023-04-02T00:38:19;99044.16;;;10.54;83.34
79123;BME280;68526;44.600;26.032;2023-04-02T00:38:36;99040.63;;;10.53;83.15
79123;BME280;68526;44.600;26.032;2023-04-02T00:38:54;99037.09;;;10.53;83.35
79123;BME280;68526;44.600;26.032;2023-04-02T00:39:18;99040.97;;;10.52;83.61
79123;BME280;68526;44.600;26.032;2023-04-02T00:39:37;99039.03;;;10.52;83.63
79123;BME280;68526;44.600;26.032;2023-04-02T00:39:57;99045.31;;;10.53;83.25
79123;BME280;68526;44.600;26.032;2023-04-02T00:40:19;99038.16;;;10.48;82.99
79123;BME280;68526;44.600;26.032;2023-04-02T00:40:38;99040.97;;;10.52;82.96
79123;BME280;68526;44.600;26.032;2023-04-02T00:40:55;99042.47;;;10.49;82.85
79123;BME280;68526;44.600;26.032;2023-04-02T00:41:15;99045.31;;;10.53;82.90
79123;BME280;68526;44.600;26.032;2023-04-02T00:41:32;99042.22;;;10.54;82.79
79123;BME280;68526;44.600;26.032;2023-04-02T00:41:54;99021.63;;;10.45;83.21
79123;BME280;68526;44.600;26.032;2023-04-02T00:42:19;99043.28;;;10.50;83.09
79123;BME280;68526;44.600;26.032;2023-04-02T00:42:37;99044.41;;;10.49;82.91
79123;BME280;68526;44.600;26.032;2023-04-02T00:42:57;99040.44;;;10.46;82.83
79123;BME280;68526;44.600;26.032;2023-04-02T00:43:15;99038.94;;;10.49;82.60
79123;BME280;68526;44.600;26.032;2023-04-02T00:43:34;99040.56;;;10.50;82.58
79123;BME280;68526;44.600;26.032;2023-04-02T00:43:51;99043.72;;;10.52;82.88
79123;BME280;68526;44.600;26.032;2023-04-02T00:44:10;99042.47;;;10.49;82.83
79123;BME280;68526;44.600;26.032;2023-04-02T00:44:27;99033.75;;;10.43;82.66
79123;BME280;68526;44.600;26.032;2023-04-02T00:44:48;99040.88;;;10.48;82.46
79123;BME280;68526;44.600;26.032;2023-04-02T00:45:09;99038.06;;;10.45;82.48
79123;BME280;68526;44.600;26.032;2023-04-02T00:45:35;99037.00;;;10.49;82.80
79123;BME280;68526;44.600;26.032;2023-04-02T00:45:54;99034.63;;;10.48;82.26
79123;BME280;68526;44.600;26.032;2023-04-02T00:46:14;99033.38;;;10.45;82.29
79123;BME280;68526;44.600;26.032;2023-04-02T00:46:39;99031.34;;;10.42;82.37
79123;BME280;68526;44.600;26.032;2023-04-02T00:47:11;99035.31;;;10.45;82.57
79123;BME280;68526;44.600;26.032;2023-04-02T00:47:32;99033.75;;;10.43;82.49
79123;BME280;68526;44.600;26.032;2023-04-02T00:47:50;99027.81;;;10.41;82.13
79123;BME280;68526;44.600;26.032;2023-04-02T00:48:20;99028.16;;;10.40;82.18
79123;BME280;68526;44.600;26.032;2023-04-02T00:48:41;99029.38;;;10.42;82.32
79123;BME280;68526;44.600;26.032;2023-04-02T00:49:03;99034.06;;;10.42;82.62
79123;BME280;68526;44.600;26.032;2023-04-02T00:49:28;99027.38;;;10.39;82.64
79123;BME280;68526;44.600;26.032;2023-04-02T00:49:54;99025.78;;;10.38;82.16
79123;BME280;68526;44.600;26.032;2023-04-02T00:50:19;99026.91;;;10.37;82.32
79123;BME280;68526;44.600;26.032;2023-04-02T00:50:40;99029.22;;;10.35;82.17
79123;BME280;68526;44.600;26.032;2023-04-02T00:51:00;99022.56;;;10.36;82.65
79123;BME280;68526;44.600;26.032;2023-04-02T00:51:24;99028.41;;;10.35;82.43
79123;BME280;68526;44.600;26.032;2023-04-02T00:51:45;99030.34;;;10.34;82.62
79123;BME280;68526;44.600;26.032;2023-04-02T00:52:05;99027.97;;;10.33;82.15
79123;BME280;68526;44.600;26.032;2023-04-02T00:52:25;99031.03;;;10.31;82.46
79123;BME280;68526;44.600;26.032;2023-04-02T00:52:45;99025.69;;;10.35;82.26
79123;BME280;68526;44.600;26.032;2023-04-02T00:53:08;99027.63;;;10.34;82.07
79123;BME280;68526;44.600;26.032;2023-04-02T00:53:27;99029.56;;;10.34;82.46
79123;BME280;68526;44.600;26.032;2023-04-02T00:53:45;99025.56;;;10.31;82.30
79123;BME280;68526;44.600;26.032;2023-04-02T00:54:03;99029.91;;;10.32;81.98
79123;BME280;68526;44.600;26.032;2023-04-02T00:54:22;99031.75;;;10.28;82.52
79123;BME280;68526;44.600;26.032;2023-04-02T00:54:42;99027.88;;;10.29;82.35
79123;BME280;68526;44.600;26.032;2023-04-02T00:55:03;99028.22;;;10.28;82.16
79123;BME280;68526;44.600;26.032;2023-04-02T00:55:23;99033.69;;;10.28;82.40
79123;BME280;68526;44.600;26.032;2023-04-02T00:55:41;98985.56;;;9.99;82.33
79123;BME280;68526;44.600;26.032;2023-04-02T00:55:58;99033.22;;;10.26;81.94
79123;BME280;68526;44.600;26.032;2023-04-02T00:56:17;99025.84;;;10.26;82.18
79123;BME280;68526;44.600;26.032;2023-04-02T00:56:38;99030.06;;;10.24;82.24
79123;BME280;68526;44.600;26.032;2023-04-02T00:56:56;99026.19;;;10.25;82.24
79123;BME280;68526;44.600;26.032;2023-04-02T00:57:16;99016.81;;;10.26;82.34
79123;BME280;68526;44.600;26.032;2023-04-02T00:57:34;99025.84;;;10.26;81.98
79123;BME280;68526;44.600;26.032;2023-04-02T00:57:58;99029.38;;;10.27;82.01
79123;BME280;68526;44.600;26.032;2023-04-02T00:58:21;99025.38;;;10.24;81.88
79123;BME280;68526;44.600;26.032;2023-04-02T00:58:37;99020.59;;;10.21;81.87
79123;BME280;68526;44.600;26.032;2023-04-02T00:58:56;99021.38;;;10.22;82.01
79123;BME280;68526;44.600;26.032;2023-04-02T00:59:24;99032.34;;;10.22;82.21
79123;BME280;68526;44.600;26.032;2023-04-02T00:59:49;99022.53;;;10.21;81.64
79123;BME280;68526;44.600;26.032;2023-04-02T01:00:18;99029.59;;;10.22;81.66
79123;BME280;68526;44.600;26.032;2023-04-02T01:00:36;99027.31;;;10.24;82.20
79123;BME280;68526;44.600;26.032;2023-04-02T01:00:52;99027.66;;;10.22;82.03
79123;BME280;68526;44.600;26.032;2023-04-02T01:01:16;99027.66;;;10.22;82.08
79123;BME280;68526;44.600;26.032;2023-04-02T01:01:35;99026.06;;;10.21;81.95
79123;BME280;68526;44.600;26.032;2023-04-02T01:01:55;99024.59;;;10.24;82.07
79123;BME280;68526;44.600;26.032;2023-04-02T01:02:22;99032.78;;;10.24;81.46
79123;BME280;68526;44.600;26.032;2023-04-02T01:02:41;99033.91;;;10.23;81.48
79123;BME280;68526;44.600;26.032;2023-04-02T01:03:26;99028.91;;;10.25;81.76
79123;BME280;68526;44.600;26.032;2023-04-02T01:03:51;99029.25;;;10.23;81.62
79123;BME280;68526;44.600;26.032;2023-04-02T01:04:27;99029.13;;;10.20;81.71
79123;BME280;68526;44.600;26.032;2023-04-02T01:04:52;99038.94;;;10.21;81.54
79123;BME280;68526;44.600;26.032;2023-04-02T01:05:20;99019.50;;;10.10;82.10
79123;BME280;68526;44.600;26.032;2023-04-02T01:05:37;99030.63;;;10.17;82.01
79123;BME280;68526;44.600;26.032;2023-04-02T01:05:58;99037.69;;;10.18;81.70
79123;BME280;68526;44.600;26.032;2023-04-02T01:06:17;99030.63;;;10.17;81.72
79123;BME280;68526;44.600;26.032;2023-04-02T01:06:35;99036.81;;;10.14;81.66
79123;BME280;68526;44.600;26.032;2023-04-02T01:06:52;99036.00;;;10.13;82.08
79123;BME280;68526;44.600;26.032;2023-04-02T01:07:10;99034.88;;;10.14;81.73
79123;BME280;68526;44.600;26.032;2023-04-02T01:07:41;99034.09;;;10.14;81.43
79123;BME280;68526;44.600;26.032;2023-04-02T01:08:06;99030.88;;;10.12;81.71
79123;BME280;68526;44.600;26.032;2023-04-02T01:08:40;99036.72;;;10.10;82.05
79123;BME280;68526;44.600;26.032;2023-04-02T01:09:22;99036.00;;;10.13;81.49
79123;BME280;68526;44.600;26.032;2023-04-02T01:09:59;99035.13;;;10.09;81.64
79123;BME280;68526;44.600;26.032;2023-04-02T01:10:41;99035.13;;;10.09;81.47
79123;BME280;68526;44.600;26.032;2023-04-02T01:11:03;99036.50;;;10.03;81.49
79123;BME280;68526;44.600;26.032;2023-04-02T01:11:35;99039.34;;;10.07;81.99
79123;BME280;68526;44.600;26.032;2023-04-02T01:12:08;99040.59;;;10.09;81.77
79123;BME280;68526;44.600;26.032;2023-04-02T01:12:39;99043.56;;;10.04;81.64
79123;BME280;68526;44.600;26.032;2023-04-02T01:13:10;99043.22;;;10.06;81.66
79123;BME280;68526;44.600;26.032;2023-04-02T01:13:32;99035.81;;;10.06;81.82
79123;BME280;68526;44.600;26.032;2023-04-02T01:13:57;99046.19;;;10.01;81.77
79123;BME280;68526;44.600;26.032;2023-04-02T01:14:27;99040.72;;;10.01;81.73
79123;BME280;68526;44.600;26.032;2023-04-02T01:14:52;99043.03;;;9.99;81.75
79123;BME280;68526;44.600;26.032;2023-04-02T01:15:14;99035.72;;;10.03;81.88
79123;BME280;68526;44.600;26.032;2023-04-02T01:15:37;99040.84;;;10.04;81.59
79123;BME280;68526;44.600;26.032;2023-04-02T01:15:58;99037.31;;;10.04;82.16
79123;BME280;68526;44.600;26.032;2023-04-02T01:16:21;99043.56;;;10.04;81.80
79123;BME280;68526;44.600;26.032;2023-04-02T01:16:50;99039.56;;;10.02;81.80
79123;BME280;68526;44.600;26.032;2023-04-02T01:17:16;99045.97;;;10.06;82.04
79123;BME280;68526;44.600;26.032;2023-04-02T01:17:46;99037.13;;;9.97;81.84
79123;BME280;68526;44.600;26.032;2023-04-02T01:18:25;99040.66;;;9.97;81.85
79123;BME280;68526;44.600;26.032;2023-04-02T01:18:52;99039.50;;;9.98;81.97
79123;BME280;68526;44.600;26.032;2023-04-02T01:19:30;99040.28;;;9.99;82.09
79123;BME280;68526;44.600;26.032;2023-04-02T01:20:19;99040.19;;;9.95;82.32
79123;BME280;68526;44.600;26.032;2023-04-02T01:21:18;99036.66;;;9.95;81.83
79123;BME280;68526;44.600;26.032;2023-04-02T01:21:48;99033.47;;;9.93;82.23
79123;BME280;68526;44.600;26.032;2023-04-02T01:22:11;99038.16;;;9.92;81.85
79123;BME280;68526;44.600;26.032;2023-04-02T01:22:34;99046.00;;;9.94;82.03
79123;BME280;68526;44.600;26.032;2023-04-02T01:22:58;99049.09;;;9.92;81.95
79123;BME280;68526;44.600;26.032;2023-04-02T01:23:20;99036.56;;;9.91;82.18
79123;BME280;68526;44.600;26.032;2023-04-02T01:23:52;99040.41;;;9.90;81.88
79123;BME280;68526;44.600;26.032;2023-04-02T01:24:11;99044.31;;;9.89;81.95
79123;BME280;68526;44.600;26.032;2023-04-02T01:24:30;99045.09;;;9.89;82.42
79123;BME280;68526;44.600;26.032;2023-04-02T01:24:47;99046.25;;;9.88;82.26
79123;BME280;68526;44.600;26.032;2023-04-02T01:25:04;99040.78;;;9.88;82.23
79123;BME280;68526;44.600;26.032;2023-04-02T01:25:24;99041.56;;;9.89;81.89
79123;BME280;68526;44.600;26.032;2023-04-02T01:25:45;99042.81;;;9.92;82.13
79123;BME280;68526;44.600;26.032;2023-04-02T01:26:10;99036.22;;;9.93;82.03
79123;BME280;68526;44.600;26.032;2023-04-02T01:26:41;99047.94;;;9.93;82.61
79123;BME280;68526;44.600;26.032;2023-04-02T01:27:00;99045.56;;;9.92;82.50
79123;BME280;68526;44.600;26.032;2023-04-02T01:27:20;99038.94;;;9.93;82.62
79123;BME280;68526;44.600;26.032;2023-04-02T01:27:43;99044.31;;;9.89;82.22
79123;BME280;68526;44.600;26.032;2023-04-02T01:28:07;99040.41;;;9.90;82.40
79123;BME280;68526;44.600;26.032;2023-04-02T01:28:27;99042.81;;;9.92;81.95
79123;BME280;68526;44.600;26.032;2023-04-02T01:29:01;99040.88;;;9.92;81.90
79123;BME280;68526;44.600;26.032;2023-04-02T01:29:21;99043.25;;;9.94;82.47
79123;BME280;68526;44.600;26.032;2023-04-02T01:29:42;99038.50;;;9.90;81.89
79123;BME280;68526;44.600;26.032;2023-04-02T01:30:00;99044.41;;;9.93;82.00
79123;BME280;68526;44.600;26.032;2023-04-02T01:30:18;99042.91;;;9.95;82.50
79123;BME280;68526;44.600;26.032;2023-04-02T01:30:35;99044.84;;;9.95;81.90
79123;BME280;68526;44.600;26.032;2023-04-02T01:30:54;99043.25;;;9.94;82.22
79123;BME280;68526;44.600;26.032;2023-04-02T01:31:14;99040.88;;;9.92;82.23
79123;BME280;68526;44.600;26.032;2023-04-02T01:31:30;99043.97;;;9.90;82.35
79123;BME280;68526;44.600;26.032;2023-04-02T01:31:49;99043.63;;;9.92;82.18
79123;BME280;68526;44.600;26.032;2023-04-02T01:32:09;99044.06;;;9.94;81.99
79123;BME280;68526;44.600;26.032;2023-04-02T01:32:29;99037.78;;;9.94;82.26
79123;BME280;68526;44.600;26.032;2023-04-02T01:32:45;99038.16;;;9.92;82.01
79123;BME280;68526;44.600;26.032;2023-04-02T01:33:02;99041.31;;;9.94;82.11
79123;BME280;68526;44.600;26.032;2023-04-02T01:33:20;99038.03;;;9.88;82.18
79123;BME280;68526;44.600;26.032;2023-04-02T01:33:40;99043.25;;;9.94;82.22
79123;BME280;68526;44.600;26.032;2023-04-02T01:33:56;99043.69;;;9.96;81.85
79123;BME280;68526;44.600;26.032;2023-04-02T01:34:14;99046.00;;;9.94;81.87
79123;BME280;68526;44.600;26.032;2023-04-02T01:34:33;99044.84;;;9.95;81.83
79123;BME280;68526;44.600;26.032;2023-04-02T01:34:51;99039.75;;;9.93;82.03
79123;BME280;68526;44.600;26.032;2023-04-02T01:35:08;99039.28;;;9.91;82.19
79123;BME280;68526;44.600;26.032;2023-04-02T01:35:26;99039.97;;;9.88;82.36
79123;BME280;68526;44.600;26.032;2023-04-02T01:35:48;99037.69;;;9.90;82.46
79123;BME280;68526;44.600;26.032;2023-04-02T01:36:14;99042.81;;;9.92;82.02
79123;BME280;68526;44.600;26.032;2023-04-02T01:36:38;99036.88;;;9.89;82.02
79123;BME280;68526;44.600;26.032;2023-04-02T01:37:08;99042.81;;;9.92;82.16
79123;BME280;68526;44.600;26.032;2023-04-02T01:37:41;99045.88;;;9.90;82.03
79123;BME280;68526;44.600;26.032;2023-04-02T01:38:07;99040.22;;;9.83;82.06
79123;BME280;68526;44.600;26.032;2023-04-02T01:38:29;99045.00;;;9.86;82.18
79123;BME280;68526;44.600;26.032;2023-04-02T01:38:50;99041.91;;;9.87;82.50
79123;BME280;68526;44.600;26.032;2023-04-02T01:39:16;99043.16;;;9.90;82.39
79123;BME280;68526;44.600;26.032;2023-04-02T01:39:51;99046.25;;;9.88;82.49
79123;BME280;68526;44.600;26.032;2023-04-02T01:40:21;99045.88;;;9.90;82.11
79123;BME280;68526;44.600;26.032;2023-04-02T01:40:44;99043.97;;;9.90;82.24
79123;BME280;68526;44.600;26.032;2023-04-02T01:41:08;99049.69;;;9.85;82.60
79123;BME280;68526;44.600;26.032;2023-04-02T01:41:31;99048.19;;;9.88;82.29
79123;BME280;68526;44.600;26.032;2023-04-02T01:41:53;99044.66;;;9.87;82.49
79123;BME280;68526;44.600;26.032;2023-04-02T01:42:17;99041.47;;;9.85;82.57
79123;BME280;68526;44.600;26.032;2023-04-02T01:42:38;99035.09;;;9.81;82.37
79123;BME280;68526;44.600;26.032;2023-04-02T01:43:03;99046.25;;;9.88;82.47
79123;BME280;68526;44.600;26.032;2023-04-02T01:43:23;99048.53;;;9.86;82.22
79123;BME280;68526;44.600;26.032;2023-04-02T01:43:45;99051.72;;;9.88;82.04
79123;BME280;68526;44.600;26.032;2023-04-02T01:44:07;99051.34;;;9.90;82.10
79123;BME280;68526;44.600;26.032;2023-04-02T01:44:28;99044.31;;;9.89;81.99
79123;BME280;68526;44.600;26.032;2023-04-02T01:44:48;99052.50;;;9.89;81.98
79123;BME280;68526;44.600;26.032;2023-04-02T01:45:08;99054.09;;;9.90;82.44
79123;BME280;68526;44.600;26.032;2023-04-02T01:45:26;99043.50;;;9.88;82.09
79123;BME280;68526;44.600;26.032;2023-04-02T01:45:43;99049.78;;;9.89;82.41
79123;BME280;68526;44.600;26.032;2023-04-02T01:46:04;99047.81;;;9.89;82.44
79123;BME280;68526;44.600;26.032;2023-04-02T01:46:25;99051.81;;;9.92;82.44
79123;BME280;68526;44.600;26.032;2023-04-02T01:46:41;99052.97;;;9.91;82.03
79123;BME280;68526;44.600;26.032;2023-04-02T01:47:01;99045.88;;;9.90;82.07
79123;BME280;68526;44.600;26.032;2023-04-02T01:47:21;99047.03;;;9.89;82.14
79123;BME280;68526;44.600;26.032;2023-04-02T01:47:38;99047.81;;;9.89;82.53
79123;BME280;68526;44.600;26.032;2023-04-02T01:47:55;99051.03;;;9.92;82.26
79123;BME280;68526;44.600;26.032;2023-04-02T01:48:14;99054.09;;;9.90;81.98
79123;BME280;68526;44.600;26.032;2023-04-02T01:48:31;99051.72;;;9.88;82.34
79123;BME280;68526;44.600;26.032;2023-04-02T01:48:47;99045.88;;;9.90;82.41
79123;BME280;68526;44.600;26.032;2023-04-02T01:49:10;99049.78;;;9.89;82.62
79123;BME280;68526;44.600;26.032;2023-04-02T01:49:26;99044.78;;;9.91;82.54
79123;BME280;68526;44.600;26.032;2023-04-02T01:49:45;99051.34;;;9.90;82.14
79123;BME280;68526;44.600;26.032;2023-04-02T01:50:04;99046.34;;;9.92;82.42
79123;BME280;68526;44.600;26.032;2023-04-02T01:50:27;99049.78;;;9.89;82.21
79123;BME280;68526;44.600;26.032;2023-04-02T01:50:47;99046.25;;;9.88;82.77
79123;BME280;68526;44.600;26.032;2023-04-02T01:51:06;99052.84;;;9.87;82.32
79123;BME280;68526;44.600;26.032;2023-04-02T01:51:26;99048.09;;;9.84;82.33
79123;BME280;68526;44.600;26.032;2023-04-02T01:51:44;99046.59;;;9.87;82.51
79123;BME280;68526;44.600;26.032;2023-04-02T01:52:00;99052.41;;;9.85;82.44
79123;BME280;68526;44.600;26.032;2023-04-02T01:52:18;99044.22;;;9.85;82.46
79123;BME280;68526;44.600;26.032;2023-04-02T01:52:42;99049.69;;;9.85;82.42
79123;BME280;68526;44.600;26.032;2023-04-02T01:53:02;99045.00;;;9.86;82.33
79123;BME280;68526;44.600;26.032;2023-04-02T01:53:21;99049.34;;;9.87;82.42
79123;BME280;68526;44.600;26.032;2023-04-02T01:53:39;99048.09;;;9.84;82.88
79123;BME280;68526;44.600;26.032;2023-04-02T01:53:55;99046.47;;;9.83;82.46
79123;BME280;68526;44.600;26.032;2023-04-02T01:54:15;99041.81;;;9.84;82.58
79123;BME280;68526;44.600;26.032;2023-04-02T01:54:32;99050.91;;;9.88;82.87